createdAt,value
2022-10-13T00:02:52.701Z,100897.40
2022-10-13T00:06:02.705Z,100895.20
2022-10-13T00:09:09.717Z,100894.20
2022-10-13T00:12:17.105Z,100894.20
2022-10-13T00:15:24.744Z,100890.20
2022-10-13T00:18:31.697Z,100890.00
2022-10-13T00:21:38.712Z,100892.40
2022-10-13T00:24:48.777Z,100892.20
2022-10-13T00:27:55.678Z,100893.60
2022-10-13T00:31:05.801Z,100894.00
2022-10-13T00:34:15.846Z,100896.40
2022-10-13T00:37:25.931Z,100897.00
2022-10-13T00:40:33.754Z,100896.40
2022-10-13T00:43:40.777Z,100889.20
2022-10-13T00:46:47.840Z,100888.00
2022-10-13T00:49:57.959Z,100884.60
2022-10-13T00:53:09.833Z,100887.40
2022-10-13T00:56:19.836Z,100889.80
2022-10-13T00:59:26.884Z,100890.80
2022-10-13T01:02:33.885Z,100893.80
2022-10-13T01:05:46.850Z,100895.40
2022-10-13T01:08:56.856Z,100894.40
2022-10-13T01:12:06.870Z,100892.40
2022-10-13T01:15:13.863Z,100882.00
2022-10-13T01:18:23.861Z,100886.80
2022-10-13T01:21:37.912Z,100886.60
2022-10-13T01:24:50.953Z,100890.60
2022-10-13T01:27:57.908Z,100887.60
2022-10-13T01:31:14.946Z,100884.20
2022-10-13T01:34:24.897Z,100887.00
2022-10-13T01:37:34.985Z,100894.60
2022-10-13T01:40:48.009Z,100896.40
2022-10-13T01:43:57.950Z,100897.40
2022-10-13T01:47:07.970Z,100892.60
2022-10-13T01:50:14.966Z,100894.00
2022-10-13T01:53:24.956Z,100893.60
2022-10-13T01:56:31.995Z,100898.80
2022-10-13T01:59:38.974Z,100898.40
2022-10-13T02:02:46.019Z,100897.60
2022-10-13T02:05:52.986Z,100900.20
2022-10-13T02:09:02.997Z,100900.80
2022-10-13T02:12:10.115Z,100896.40
2022-10-13T02:15:24.026Z,100900.40
2022-10-13T02:18:31.039Z,100897.20
2022-10-13T02:21:41.009Z,100896.80
2022-10-13T02:24:47.982Z,100893.20
2022-10-13T02:27:54.998Z,100889.20
2022-10-13T02:31:05.121Z,100885.40
2022-10-13T02:34:15.095Z,100890.80
2022-10-13T02:37:25.106Z,100891.20
2022-10-13T02:40:32.097Z,100885.80
2022-10-13T02:43:39.140Z,100882.20
2022-10-13T02:46:49.065Z,100880.40
2022-10-13T02:49:59.148Z,100877.80
2022-10-13T02:53:06.911Z,100878.40
2022-10-13T02:56:15.211Z,100875.60
2022-10-13T02:59:25.102Z,100868.20
2022-10-13T03:02:35.111Z,100874.60
2022-10-13T03:05:42.195Z,100870.40
2022-10-13T03:08:49.194Z,100868.20
2022-10-13T03:12:00.186Z,100868.80
2022-10-13T03:15:07.175Z,100862.80
2022-10-13T03:18:17.214Z,100862.60
2022-10-13T03:21:30.242Z,100855.80
2022-10-13T03:24:40.262Z,100851.80
2022-10-13T03:27:48.336Z,100852.00
2022-10-13T03:30:58.223Z,100853.00
2022-10-13T03:34:08.266Z,100850.00
2022-10-13T03:37:18.304Z,100848.80
2022-10-13T03:40:28.241Z,100848.00
2022-10-13T03:43:41.271Z,100845.60
2022-10-13T03:46:52.251Z,100849.20
2022-10-13T03:50:03.285Z,100850.40
2022-10-13T03:53:13.258Z,100850.00
2022-10-13T03:56:26.266Z,100849.40
2022-10-13T03:59:44.316Z,100849.00
2022-10-13T04:02:57.407Z,100853.40
2022-10-13T04:06:07.346Z,100848.40
2022-10-13T04:09:14.512Z,100850.20
2022-10-13T04:12:22.500Z,100849.20
2022-10-13T04:15:30.342Z,100847.80
2022-10-13T04:18:41.076Z,100848.60
2022-10-13T04:21:51.453Z,100849.80
2022-10-13T04:24:58.314Z,100852.20
2022-10-13T04:28:08.347Z,100851.20
2022-10-13T04:31:18.460Z,100855.00
2022-10-13T04:34:25.356Z,100860.80
2022-10-13T04:37:32.412Z,100861.20
2022-10-13T04:40:42.379Z,100867.80
2022-10-13T04:43:49.463Z,100865.60
2022-10-13T04:46:56.418Z,100865.60
2022-10-13T04:50:06.423Z,100863.60
2022-10-13T04:53:18.284Z,100866.60
2022-10-13T04:56:26.349Z,100869.60
2022-10-13T04:59:33.415Z,100866.20
2022-10-13T05:02:40.464Z,100870.60
2022-10-13T05:05:50.422Z,100877.20
2022-10-13T05:09:00.524Z,100878.00
2022-10-13T05:12:11.460Z,100877.20
2022-10-13T05:15:21.438Z,100877.60
2022-10-13T05:18:28.522Z,100877.80
2022-10-13T05:21:35.509Z,100878.80
2022-10-13T05:24:42.464Z,100882.80
2022-10-13T05:27:49.484Z,100887.60
2022-10-13T05:30:56.582Z,100888.80
2022-10-13T05:34:06.539Z,100888.20
2022-10-13T05:37:19.558Z,100887.00
2022-10-13T05:40:26.556Z,100889.40
2022-10-13T05:43:34.584Z,100891.20
2022-10-13T05:46:47.644Z,100896.80
2022-10-13T05:49:55.588Z,100905.80
2022-10-13T05:53:02.581Z,100905.00
2022-10-13T05:56:12.619Z,100905.60
2022-10-13T05:59:23.353Z,100908.40
2022-10-13T06:02:33.567Z,100912.80
2022-10-13T06:05:40.621Z,100909.80
2022-10-13T06:08:47.552Z,100912.80
2022-10-13T06:11:57.611Z,100911.20
2022-10-13T06:15:04.727Z,100913.00
2022-10-13T06:18:16.637Z,100911.20
2022-10-13T06:21:26.636Z,100907.80
2022-10-13T06:24:40.690Z,100914.80
2022-10-13T06:27:50.665Z,100911.80
2022-10-13T06:31:03.783Z,100917.00
2022-10-13T06:34:13.657Z,100909.60
2022-10-13T06:37:24.795Z,100915.80
2022-10-13T06:40:34.852Z,100913.60
2022-10-13T06:43:44.711Z,100911.00
2022-10-13T06:46:54.770Z,100911.00
2022-10-13T06:50:04.689Z,100909.80
2022-10-13T06:53:14.734Z,100907.60
2022-10-13T06:56:21.703Z,100908.40
2022-10-13T06:59:31.747Z,100910.60
2022-10-13T07:02:38.819Z,100908.60
2022-10-13T07:05:51.779Z,100906.60
2022-10-13T07:09:01.750Z,100904.60
2022-10-13T07:12:11.721Z,100904.80
2022-10-13T07:15:18.808Z,100904.80
2022-10-13T07:18:25.766Z,100901.00
2022-10-13T07:21:35.729Z,100906.00
2022-10-13T07:24:42.838Z,100902.20
2022-10-13T07:27:52.833Z,100900.00
2022-10-13T07:30:59.857Z,100899.00
2022-10-13T07:34:09.946Z,100895.00
2022-10-13T07:37:20.498Z,100901.00
2022-10-13T07:40:27.866Z,100892.20
2022-10-13T07:43:37.835Z,100896.60
2022-10-13T07:46:47.864Z,100888.40
2022-10-13T07:50:00.920Z,100884.40
2022-10-13T07:53:12.178Z,100882.80
2022-10-13T07:56:19.798Z,100886.40
2022-10-13T07:59:26.979Z,100885.80
2022-10-13T08:02:36.892Z,100889.40
2022-10-13T08:05:54.953Z,100888.60
2022-10-13T08:09:04.948Z,100889.60
2022-10-13T08:12:18.233Z,100890.40
2022-10-13T08:15:29.016Z,100885.60
2022-10-13T08:18:40.941Z,100887.00
2022-10-13T08:21:59.536Z,100890.20
2022-10-13T08:25:08.019Z,100887.60
2022-10-13T08:28:17.006Z,100887.60
2022-10-13T08:31:27.124Z,100887.40
2022-10-13T08:34:43.997Z,100886.20
2022-10-13T08:37:59.966Z,100892.80
2022-10-13T08:41:11.074Z,100884.80
2022-10-13T08:47:54.409Z,100890.20
2022-10-13T08:51:12.091Z,100880.40
2022-10-13T08:54:20.215Z,100883.80
2022-10-13T08:57:30.966Z,100878.00
2022-10-13T09:00:41.012Z,100879.80
2022-10-13T09:03:48.069Z,100878.80
2022-10-13T09:06:55.085Z,100880.80
2022-10-13T09:10:12.124Z,100880.20
2022-10-13T09:13:23.174Z,100875.00
2022-10-13T09:16:42.231Z,100881.00
2022-10-13T09:20:08.289Z,100877.80
2022-10-13T09:23:21.105Z,100878.80
2022-10-13T09:26:31.064Z,100875.80
2022-10-13T09:29:41.216Z,100878.40
2022-10-13T09:32:50.269Z,100877.40
2022-10-13T09:36:00.174Z,100876.00
2022-10-13T09:39:07.162Z,100874.80
2022-10-13T09:42:20.359Z,100865.00
2022-10-13T09:45:32.308Z,100860.40
2022-10-13T09:48:50.203Z,100864.60
2022-10-13T09:52:00.332Z,100860.80
2022-10-13T09:55:32.941Z,100858.80
2022-10-13T09:58:40.440Z,100853.00
2022-10-13T10:02:03.946Z,100854.40
2022-10-13T10:05:35.081Z,100855.60
2022-10-13T10:09:02.119Z,100858.00
2022-10-13T10:12:38.344Z,100864.80
2022-10-13T10:15:55.485Z,100861.40
2022-10-13T10:23:00.431Z,100844.00
2022-10-13T10:26:13.450Z,100837.60
2022-10-13T10:29:22.458Z,100829.80
2022-10-13T10:32:29.295Z,100829.40
2022-10-13T10:35:36.297Z,100822.20
2022-10-13T10:38:46.413Z,100823.60
2022-10-13T10:41:56.372Z,100819.20
2022-10-13T10:45:09.432Z,100812.80
2022-10-13T10:48:16.405Z,100803.20
2022-10-13T10:51:26.510Z,100809.40
2022-10-13T10:54:33.526Z,100803.60
2022-10-13T10:57:46.540Z,100800.20
2022-10-13T11:00:56.384Z,100800.40
2022-10-13T11:04:03.534Z,100793.20
2022-10-13T11:07:20.606Z,100795.00
2022-10-13T11:14:15.687Z,100784.40
2022-10-13T11:21:14.667Z,100773.80
2022-10-13T11:24:24.463Z,100776.60
2022-10-13T11:27:36.483Z,100776.40
2022-10-13T11:30:45.652Z,100768.20
2022-10-13T11:33:58.466Z,100766.00
2022-10-13T11:37:05.529Z,100764.00
2022-10-13T11:40:12.565Z,100755.00
2022-10-13T11:43:22.567Z,100755.00
2022-10-13T11:46:29.612Z,100751.80
2022-10-13T11:49:39.747Z,100743.60
2022-10-13T11:52:50.550Z,100741.20
2022-10-13T11:55:57.554Z,100735.40
2022-10-13T11:59:04.654Z,100735.00
2022-10-13T12:02:11.595Z,100734.40
2022-10-13T12:05:18.616Z,100730.60
2022-10-13T12:08:28.654Z,100734.00
2022-10-13T12:11:38.559Z,100728.60
2022-10-13T12:14:45.557Z,100730.80
2022-10-13T12:17:52.628Z,100733.80
2022-10-13T12:20:59.677Z,100730.80
2022-10-13T12:24:18.699Z,100728.60
2022-10-13T12:27:37.145Z,100724.00
2022-10-13T12:30:48.790Z,100718.60
2022-10-13T12:34:01.877Z,100716.00
2022-10-13T12:37:18.314Z,100716.60
2022-10-13T12:40:28.757Z,100710.60
2022-10-13T12:43:36.772Z,100709.00
2022-10-13T12:47:00.784Z,100709.60
2022-10-13T12:50:11.937Z,100704.40
2022-10-13T12:53:24.815Z,100703.00
2022-10-13T12:56:32.856Z,100703.00
2022-10-13T12:59:46.770Z,100702.60
2022-10-13T13:02:53.737Z,100699.00
2022-10-13T13:06:00.907Z,100697.20
2022-10-13T13:09:15.884Z,100692.40
2022-10-13T13:12:25.825Z,100692.00
2022-10-13T13:15:38.798Z,100690.40
2022-10-13T13:18:45.837Z,100689.60
2022-10-13T13:25:04.764Z,100682.00
2022-10-13T13:28:11.797Z,100681.00
2022-10-13T13:31:21.845Z,100678.80
2022-10-13T13:34:31.782Z,100684.80
2022-10-13T13:37:38.778Z,100686.40
2022-10-13T13:40:48.843Z,100686.40
2022-10-13T13:43:58.916Z,100691.00
2022-10-13T13:47:10.988Z,100689.80
2022-10-13T13:50:17.860Z,100694.00
2022-10-13T13:53:25.005Z,100693.80
2022-10-13T13:56:34.850Z,100689.20
2022-10-13T13:59:44.964Z,100686.00
2022-10-13T14:02:51.853Z,100689.60
2022-10-13T14:06:01.904Z,100694.20
2022-10-13T14:09:08.923Z,100694.60
2022-10-13T14:12:15.938Z,100691.60
2022-10-13T14:15:27.275Z,100695.20
2022-10-13T14:18:36.977Z,100689.00
2022-10-13T14:21:43.943Z,100690.80
2022-10-13T14:24:50.943Z,100685.40
2022-10-13T14:27:58.000Z,100683.60
2022-10-13T14:31:08.980Z,100686.40
2022-10-13T14:34:16.090Z,100681.40
2022-10-13T14:37:32.674Z,100684.00
2022-10-13T14:40:43.995Z,100686.60
2022-10-13T14:43:57.014Z,100688.60
2022-10-13T14:47:04.179Z,100688.60
2022-10-13T14:53:43.035Z,100689.40
2022-10-13T14:56:56.017Z,100691.40
2022-10-13T15:00:07.200Z,100687.20
2022-10-13T15:03:17.181Z,100687.20
2022-10-13T15:06:25.039Z,100685.80
2022-10-13T15:09:52.189Z,100686.60
2022-10-13T15:13:01.136Z,100686.20
2022-10-13T15:16:09.071Z,100687.60
2022-10-13T15:19:16.095Z,100691.80
2022-10-13T15:22:29.129Z,100697.20
2022-10-13T15:25:40.085Z,100699.20
2022-10-13T15:28:50.418Z,100700.80
2022-10-13T15:32:02.114Z,100700.80
2022-10-13T15:35:09.103Z,100705.00
2022-10-13T15:38:19.115Z,100705.40
2022-10-13T15:41:26.270Z,100709.40
2022-10-13T15:48:06.148Z,100709.20
2022-10-13T15:51:13.307Z,100709.80
2022-10-13T15:54:26.228Z,100714.20
2022-10-13T15:57:36.279Z,100713.20
2022-10-13T16:00:47.418Z,100711.40
2022-10-13T16:04:00.271Z,100708.60
2022-10-13T16:07:15.348Z,100709.20
2022-10-13T16:10:29.352Z,100709.20
2022-10-13T16:13:39.229Z,100709.60
2022-10-13T16:16:52.263Z,100703.20
2022-10-13T16:20:02.339Z,100696.40
2022-10-13T16:23:15.287Z,100690.80
2022-10-13T16:26:31.317Z,100695.80
2022-10-13T16:29:40.677Z,100700.80
2022-10-13T16:32:51.374Z,100704.20
2022-10-13T16:36:21.571Z,100706.80
2022-10-13T16:39:42.299Z,100706.20
2022-10-13T16:42:56.357Z,100713.20
2022-10-13T16:46:03.319Z,100712.80
2022-10-13T16:49:13.353Z,100711.20
2022-10-13T16:52:20.525Z,100710.20
2022-10-13T16:55:36.883Z,100707.40
2022-10-13T16:58:51.487Z,100708.20
2022-10-13T17:02:02.305Z,100706.60
2022-10-13T17:05:14.402Z,100706.60
2022-10-13T17:08:24.359Z,100710.20
2022-10-13T17:11:40.526Z,100709.60
2022-10-13T17:14:48.442Z,100711.00
2022-10-13T17:18:02.378Z,100711.60
2022-10-13T17:21:09.378Z,100712.20
2022-10-13T17:24:22.426Z,100711.00
2022-10-13T17:27:32.402Z,100708.80
2022-10-13T17:30:39.545Z,100708.80
2022-10-13T17:33:47.552Z,100714.80
2022-10-13T17:36:57.476Z,100716.00
2022-10-13T17:40:04.469Z,100716.40
2022-10-13T17:43:14.515Z,100717.40
2022-10-13T17:46:40.813Z,100719.00
2022-10-13T17:49:52.503Z,100711.40
2022-10-13T17:53:05.395Z,100708.80
2022-10-13T17:56:17.471Z,100704.60
2022-10-13T17:59:24.512Z,100709.80
2022-10-13T18:02:37.531Z,100706.20
2022-10-13T18:05:47.708Z,100709.60
2022-10-13T18:08:55.571Z,100711.20
2022-10-13T18:12:09.717Z,100711.20
2022-10-13T18:15:22.547Z,100708.60
2022-10-13T18:18:29.634Z,100707.60
2022-10-13T18:21:39.552Z,100706.00
2022-10-13T18:24:56.041Z,100706.00
2022-10-13T18:28:04.545Z,100709.60
2022-10-13T18:31:19.736Z,100706.80
2022-10-13T18:34:34.614Z,100698.20
2022-10-13T18:37:44.667Z,100706.60
2022-10-13T18:40:59.555Z,100703.20
2022-10-13T18:44:06.538Z,100707.40
2022-10-13T18:47:16.670Z,100705.20
2022-10-13T18:50:24.583Z,100703.40
2022-10-13T18:53:34.622Z,100706.40
2022-10-13T18:56:41.610Z,100702.20
2022-10-13T18:59:51.584Z,100709.00
2022-10-13T19:02:58.623Z,100705.00
2022-10-13T19:06:08.690Z,100710.60
2022-10-13T19:09:16.647Z,100712.40
2022-10-13T19:12:26.689Z,100714.80
2022-10-13T19:15:36.693Z,100720.20
2022-10-13T19:18:44.744Z,100725.40
2022-10-13T19:21:54.655Z,100726.20
2022-10-13T19:25:01.732Z,100723.80
2022-10-13T19:28:08.726Z,100722.60
2022-10-13T19:31:18.671Z,100725.80
2022-10-13T19:34:25.782Z,100724.60
2022-10-13T19:37:38.902Z,100726.00
2022-10-13T19:40:46.721Z,100727.20
2022-10-13T19:43:56.711Z,100730.60
2022-10-13T19:47:06.831Z,100733.00
2022-10-13T19:50:16.793Z,100732.40
2022-10-13T19:53:31.787Z,100730.80
2022-10-13T19:56:41.883Z,100734.80
2022-10-13T19:59:49.776Z,100737.60
2022-10-13T20:03:02.783Z,100738.00
2022-10-13T20:06:12.823Z,100743.00
2022-10-13T20:09:23.766Z,100739.00
2022-10-13T20:12:30.803Z,100741.20
2022-10-13T20:15:37.887Z,100743.00
2022-10-13T20:18:45.967Z,100738.00
2022-10-13T20:21:54.920Z,100740.00
2022-10-13T20:25:02.825Z,100737.80
2022-10-13T20:28:13.158Z,100738.40
2022-10-13T20:31:19.819Z,100731.60
2022-10-13T20:34:26.817Z,100735.00
2022-10-13T20:37:36.840Z,100726.60
2022-10-13T20:40:43.927Z,100723.00
2022-10-13T20:43:50.836Z,100730.60
2022-10-13T20:47:00.870Z,100728.40
2022-10-13T20:50:10.897Z,100730.20
2022-10-13T20:53:17.839Z,100729.40
2022-10-13T20:56:24.979Z,100730.60
2022-10-13T20:59:35.009Z,100732.00
2022-10-13T21:02:44.973Z,100730.60
2022-10-13T21:05:54.986Z,100726.60
2022-10-13T21:09:01.985Z,100727.40
2022-10-13T21:12:09.968Z,100729.40
2022-10-13T21:15:17.128Z,100731.40
2022-10-13T21:18:25.182Z,100727.60
2022-10-13T21:21:34.101Z,100731.20
2022-10-13T21:24:40.953Z,100726.60
2022-10-13T21:27:51.047Z,100716.60
2022-10-13T21:30:58.993Z,100711.40
2022-10-13T21:34:19.979Z,100706.20
2022-10-13T21:37:27.102Z,100702.80
2022-10-13T21:40:37.095Z,100707.40
2022-10-13T21:43:47.050Z,100705.80
2022-10-13T21:46:54.075Z,100709.40
2022-10-13T21:50:05.046Z,100706.20
2022-10-13T21:53:12.216Z,100707.60
2022-10-13T21:56:23.132Z,100706.60
2022-10-13T21:59:42.057Z,100704.80
2022-10-13T22:06:23.076Z,100704.40
2022-10-13T22:09:33.106Z,100704.00
2022-10-13T22:12:40.158Z,100706.00
2022-10-13T22:15:50.172Z,100710.20
2022-10-13T22:19:03.144Z,100711.00
2022-10-13T22:22:13.139Z,100707.60
2022-10-13T22:25:23.129Z,100712.20
2022-10-13T22:28:34.731Z,100711.80
2022-10-13T22:31:47.077Z,100705.00
2022-10-13T22:34:54.121Z,100701.80
2022-10-13T22:38:01.116Z,100697.80
2022-10-13T22:41:11.185Z,100704.40
2022-10-13T22:44:22.211Z,100703.60
2022-10-13T22:47:32.184Z,100702.80
2022-10-13T22:50:42.273Z,100697.60
2022-10-13T22:53:50.218Z,100696.00
2022-10-13T22:56:57.273Z,100694.00
2022-10-13T23:00:10.170Z,100689.60
2022-10-13T23:03:17.282Z,100687.40
2022-10-13T23:06:27.265Z,100686.80
2022-10-13T23:09:34.251Z,100685.80
2022-10-13T23:12:41.255Z,100690.20
2022-10-13T23:15:48.262Z,100690.80
2022-10-13T23:18:58.235Z,100685.00
2022-10-13T23:22:08.257Z,100684.00
2022-10-13T23:25:15.302Z,100684.60
2022-10-13T23:28:25.326Z,100682.40
2022-10-13T23:31:35.227Z,100687.60
2022-10-13T23:34:42.282Z,100683.40
2022-10-13T23:37:55.325Z,100687.60
2022-10-13T23:41:02.297Z,100681.60
2022-10-13T23:44:12.333Z,100681.20
2022-10-13T23:47:19.790Z,100683.80
2022-10-13T23:50:30.509Z,100681.40
2022-10-13T23:53:41.388Z,100680.80
2022-10-13T23:56:48.372Z,100679.40
2022-10-13T23:59:58.370Z,100676.40
